sensor_id;sensor_type;location;lat;lon;timestamp;temperature;humidity
36206;DHT22;22242;48.796;9.930;2023-03-11T00:00:51;2.10;99.90
36206;DHT22;22242;48.796;9.930;2023-03-11T00:03:19;2.10;99.90
36206;DHT22;22242;48.796;9.930;2023-03-11T00:05:49;2.10;99.90
36206;DHT22;22242;48.796;9.930;2023-03-11T00:08:22;2.10;99.90
36206;DHT22;22242;48.796;9.930;2023-03-11T00:10:52;2.10;99.90
36206;DHT22;22242;48.796;9.930;2023-03-11T00:13:20;2.00;99.90
36206;DHT22;22242;48.796;9.930;2023-03-11T00:15:48;2.00;99.90
36206;DHT22;22242;48.796;9.930;2023-03-11T00:18:16;2.10;99.90
36206;DHT22;22242;48.796;9.930;2023-03-11T00:20:45;2.10;99.90
36206;DHT22;22242;48.796;9.930;2023-03-11T00:23:15;2.00;99.90
36206;DHT22;22242;48.796;9.930;2023-03-11T00:25:43;2.10;99.90
36206;DHT22;22242;48.796;9.930;2023-03-11T00:28:11;2.10;99.90
36206;DHT22;22242;48.796;9.930;2023-03-11T00:30:40;2.10;99.90
36206;DHT22;22242;48.796;9.930;2023-03-11T00:33:09;2.10;99.90
36206;DHT22;22242;48.796;9.930;2023-03-11T00:35:38;2.00;99.90
36206;DHT22;22242;48.796;9.930;2023-03-11T00:38:07;1.90;99.90
36206;DHT22;22242;48.796;9.930;2023-03-11T00:40:39;1.90;99.90
36206;DHT22;22242;48.796;9.930;2023-03-11T00:43:06;1.90;99.90
36206;DHT22;22242;48.796;9.930;2023-03-11T00:45:35;1.90;99.90
36206;DHT22;22242;48.796;9.930;2023-03-11T00:48:03;1.90;99.90
36206;DHT22;22242;48.796;9.930;2023-03-11T00:50:32;1.90;99.90
36206;DHT22;22242;48.796;9.930;2023-03-11T00:53:00;1.90;99.90
36206;DHT22;22242;48.796;9.930;2023-03-11T00:55:29;1.90;99.90
36206;DHT22;22242;48.796;9.930;2023-03-11T00:58:01;1.80;99.90
36206;DHT22;22242;48.796;9.930;2023-03-11T01:00:36;1.90;99.90
36206;DHT22;22242;48.796;9.930;2023-03-11T01:03:04;1.90;99.90
36206;DHT22;22242;48.796;9.930;2023-03-11T01:05:32;1.90;99.90
36206;DHT22;22242;48.796;9.930;2023-03-11T01:08:02;1.80;99.90
36206;DHT22;22242;48.796;9.930;2023-03-11T01:10:32;1.80;99.90
36206;DHT22;22242;48.796;9.930;2023-03-11T01:13:00;1.80;99.90
36206;DHT22;22242;48.796;9.930;2023-03-11T01:15:30;1.80;99.90
36206;DHT22;22242;48.796;9.930;2023-03-11T01:17:58;1.60;99.90
36206;DHT22;22242;48.796;9.930;2023-03-11T01:20:25;1.70;99.90
36206;DHT22;22242;48.796;9.930;2023-03-11T01:22:52;1.70;99.90
36206;DHT22;22242;48.796;9.930;2023-03-11T01:25:22;1.70;99.90
36206;DHT22;22242;48.796;9.930;2023-03-11T01:27:50;1.70;99.90
36206;DHT22;22242;48.796;9.930;2023-03-11T01:30:20;1.70;99.90
36206;DHT22;22242;48.796;9.930;2023-03-11T01:32:47;1.60;99.90
36206;DHT22;22242;48.796;9.930;2023-03-11T01:35:16;1.60;99.90
36206;DHT22;22242;48.796;9.930;2023-03-11T01:37:45;1.70;99.90
36206;DHT22;22242;48.796;9.930;2023-03-11T01:40:17;1.60;99.90
36206;DHT22;22242;48.796;9.930;2023-03-11T01:42:45;1.60;99.90
36206;DHT22;22242;48.796;9.930;2023-03-11T01:45:30;1.60;99.90
36206;DHT22;22242;48.796;9.930;2023-03-11T01:47:59;1.50;99.90
36206;DHT22;22242;48.796;9.930;2023-03-11T01:50:28;1.50;99.90
36206;DHT22;22242;48.796;9.930;2023-03-11T01:52:58;1.50;99.90
36206;DHT22;22242;48.796;9.930;2023-03-11T01:55:25;1.60;99.90
36206;DHT22;22242;48.796;9.930;2023-03-11T01:57:54;1.50;99.90
36206;DHT22;22242;48.796;9.930;2023-03-11T02:00:23;1.50;99.90
36206;DHT22;22242;48.796;9.930;2023-03-11T02:02:51;1.20;99.90
36206;DHT22;22242;48.796;9.930;2023-03-11T02:05:20;1.10;99.90
36206;DHT22;22242;48.796;9.930;2023-03-11T02:07:49;1.10;99.90
36206;DHT22;22242;48.796;9.930;2023-03-11T02:10:19;1.00;99.90
36206;DHT22;22242;48.796;9.930;2023-03-11T02:12:47;0.90;99.90
36206;DHT22;22242;48.796;9.930;2023-03-11T02:15:24;1.00;99.90
36206;DHT22;22242;48.796;9.930;2023-03-11T02:17:52;1.00;99.90
36206;DHT22;22242;48.796;9.930;2023-03-11T02:20:29;0.90;99.90
36206;DHT22;22242;48.796;9.930;2023-03-11T02:23:00;0.90;99.90
36206;DHT22;22242;48.796;9.930;2023-03-11T02:25:33;0.90;99.90
36206;DHT22;22242;48.796;9.930;2023-03-11T02:28:05;0.80;99.90
36206;DHT22;22242;48.796;9.930;2023-03-11T02:30:33;0.90;99.90
36206;DHT22;22242;48.796;9.930;2023-03-11T02:33:02;0.90;99.90
36206;DHT22;22242;48.796;9.930;2023-03-11T02:35:29;0.90;99.90
36206;DHT22;22242;48.796;9.930;2023-03-11T02:37:57;0.80;99.90
36206;DHT22;22242;48.796;9.930;2023-03-11T02:40:36;0.80;99.90
36206;DHT22;22242;48.796;9.930;2023-03-11T02:43:08;0.90;99.90
36206;DHT22;22242;48.796;9.930;2023-03-11T02:45:38;0.80;99.90
36206;DHT22;22242;48.796;9.930;2023-03-11T02:48:08;0.80;99.90
36206;DHT22;22242;48.796;9.930;2023-03-11T02:50:37;0.80;99.90
36206;DHT22;22242;48.796;9.930;2023-03-11T02:53:06;0.70;99.90
36206;DHT22;22242;48.796;9.930;2023-03-11T02:55:33;0.80;99.90
36206;DHT22;22242;48.796;9.930;2023-03-11T02:58:00;0.70;99.90
36206;DHT22;22242;48.796;9.930;2023-03-11T03:00:29;0.70;99.90
36206;DHT22;22242;48.796;9.930;2023-03-11T03:03:02;0.70;99.90
36206;DHT22;22242;48.796;9.930;2023-03-11T03:05:29;0.70;99.90
36206;DHT22;22242;48.796;9.930;2023-03-11T03:07:58;0.70;99.90
36206;DHT22;22242;48.796;9.930;2023-03-11T03:10:25;0.60;99.90
36206;DHT22;22242;48.796;9.930;2023-03-11T03:12:52;0.70;99.90
36206;DHT22;22242;48.796;9.930;2023-03-11T03:15:19;0.60;99.90
36206;DHT22;22242;48.796;9.930;2023-03-11T03:17:48;0.60;99.90
36206;DHT22;22242;48.796;9.930;2023-03-11T03:20:16;0.40;99.90
36206;DHT22;22242;48.796;9.930;2023-03-11T03:22:48;0.30;99.90
36206;DHT22;22242;48.796;9.930;2023-03-11T03:25:19;0.20;99.90
36206;DHT22;22242;48.796;9.930;2023-03-11T03:27:48;0.20;99.90
36206;DHT22;22242;48.796;9.930;2023-03-11T03:30:15;0.10;99.90
36206;DHT22;22242;48.796;9.930;2023-03-11T03:32:43;-0.10;99.90
36206;DHT22;22242;48.796;9.930;2023-03-11T03:35:15;-0.20;99.90
36206;DHT22;22242;48.796;9.930;2023-03-11T03:37:57;-0.20;99.90
36206;DHT22;22242;48.796;9.930;2023-03-11T03:40:25;-0.20;99.90
36206;DHT22;22242;48.796;9.930;2023-03-11T03:42:54;-0.30;99.90
36206;DHT22;22242;48.796;9.930;2023-03-11T03:45:21;-0.20;99.90
36206;DHT22;22242;48.796;9.930;2023-03-11T03:47:51;-0.30;99.90
36206;DHT22;22242;48.796;9.930;2023-03-11T03:50:21;-0.20;99.90
36206;DHT22;22242;48.796;9.930;2023-03-11T03:52:51;-0.20;99.90
36206;DHT22;22242;48.796;9.930;2023-03-11T03:55:20;-0.30;99.90
36206;DHT22;22242;48.796;9.930;2023-03-11T03:57:47;-0.30;99.90
36206;DHT22;22242;48.796;9.930;2023-03-11T04:00:16;-0.30;99.90
36206;DHT22;22242;48.796;9.930;2023-03-11T04:02:48;-0.30;99.90
36206;DHT22;22242;48.796;9.930;2023-03-11T04:05:25;-0.40;99.90
36206;DHT22;22242;48.796;9.930;2023-03-11T04:07:54;-0.40;99.90
36206;DHT22;22242;48.796;9.930;2023-03-11T04:10:21;-0.50;99.90
36206;DHT22;22242;48.796;9.930;2023-03-11T04:12:48;-0.60;99.90
36206;DHT22;22242;48.796;9.930;2023-03-11T04:15:16;-0.60;99.90
36206;DHT22;22242;48.796;9.930;2023-03-11T04:17:43;-0.50;99.90
36206;DHT22;22242;48.796;9.930;2023-03-11T04:20:11;-0.60;99.90
36206;DHT22;22242;48.796;9.930;2023-03-11T04:22:43;-0.50;99.90
36206;DHT22;22242;48.796;9.930;2023-03-11T04:25:10;-0.60;99.90
36206;DHT22;22242;48.796;9.930;2023-03-11T04:27:38;-0.60;99.90
36206;DHT22;22242;48.796;9.930;2023-03-11T04:30:09;-0.50;99.90
36206;DHT22;22242;48.796;9.930;2023-03-11T04:32:37;-0.60;99.90
36206;DHT22;22242;48.796;9.930;2023-03-11T04:35:04;-0.60;99.90
36206;DHT22;22242;48.796;9.930;2023-03-11T04:37:32;-0.50;99.90
36206;DHT22;22242;48.796;9.930;2023-03-11T04:40:01;-0.50;99.90
36206;DHT22;22242;48.796;9.930;2023-03-11T04:42:32;-0.60;99.90
36206;DHT22;22242;48.796;9.930;2023-03-11T04:44:59;-0.50;99.90
36206;DHT22;22242;48.796;9.930;2023-03-11T04:47:29;-0.50;99.90
36206;DHT22;22242;48.796;9.930;2023-03-11T04:49:56;-0.60;99.90
36206;DHT22;22242;48.796;9.930;2023-03-11T04:52:23;-0.60;99.90
36206;DHT22;22242;48.796;9.930;2023-03-11T04:54:50;-0.50;99.90
36206;DHT22;22242;48.796;9.930;2023-03-11T04:57:19;-0.50;99.90
36206;DHT22;22242;48.796;9.930;2023-03-11T04:59:47;-0.60;99.90
36206;DHT22;22242;48.796;9.930;2023-03-11T05:02:14;-0.60;99.90
36206;DHT22;22242;48.796;9.930;2023-03-11T05:04:49;-0.50;99.90
36206;DHT22;22242;48.796;9.930;2023-03-11T05:07:17;-0.50;99.90
36206;DHT22;22242;48.796;9.930;2023-03-11T05:09:44;-0.60;99.90
36206;DHT22;22242;48.796;9.930;2023-03-11T05:12:12;-0.70;99.90
36206;DHT22;22242;48.796;9.930;2023-03-11T05:14:42;-0.70;99.90
36206;DHT22;22242;48.796;9.930;2023-03-11T05:17:09;-0.60;99.90
36206;DHT22;22242;48.796;9.930;2023-03-11T05:19:38;-0.60;99.90
36206;DHT22;22242;48.796;9.930;2023-03-11T05:22:12;-0.70;99.90
36206;DHT22;22242;48.796;9.930;2023-03-11T05:24:40;-0.70;99.90
36206;DHT22;22242;48.796;9.930;2023-03-11T05:27:07;-0.70;99.90
36206;DHT22;22242;48.796;9.930;2023-03-11T05:29:36;-0.60;99.90
36206;DHT22;22242;48.796;9.930;2023-03-11T05:32:07;-0.60;99.90
36206;DHT22;22242;48.796;9.930;2023-03-11T05:34:34;-0.70;99.90
36206;DHT22;22242;48.796;9.930;2023-03-11T05:37:01;-0.80;99.90
36206;DHT22;22242;48.796;9.930;2023-03-11T05:39:28;-0.70;99.90
36206;DHT22;22242;48.796;9.930;2023-03-11T05:41:56;-0.70;99.90
36206;DHT22;22242;48.796;9.930;2023-03-11T05:44:24;-0.80;99.90
36206;DHT22;22242;48.796;9.930;2023-03-11T05:46:52;-0.90;99.90
36206;DHT22;22242;48.796;9.930;2023-03-11T05:49:21;-0.90;99.90
36206;DHT22;22242;48.796;9.930;2023-03-11T05:51:50;-0.90;99.90
36206;DHT22;22242;48.796;9.930;2023-03-11T05:54:19;-1.00;99.90
36206;DHT22;22242;48.796;9.930;2023-03-11T05:56:49;-1.00;99.90
36206;DHT22;22242;48.796;9.930;2023-03-11T05:59:17;-0.90;99.90
36206;DHT22;22242;48.796;9.930;2023-03-11T06:01:52;-1.00;99.90
36206;DHT22;22242;48.796;9.930;2023-03-11T06:04:22;-1.00;99.90
36206;DHT22;22242;48.796;9.930;2023-03-11T06:06:49;-0.90;99.90
36206;DHT22;22242;48.796;9.930;2023-03-11T06:09:19;-0.80;99.90
36206;DHT22;22242;48.796;9.930;2023-03-11T06:11:46;-0.90;99.90
36206;DHT22;22242;48.796;9.930;2023-03-11T06:14:15;-0.90;99.90
36206;DHT22;22242;48.796;9.930;2023-03-11T06:16:44;-0.80;99.90
36206;DHT22;22242;48.796;9.930;2023-03-11T06:19:12;-0.80;99.90
36206;DHT22;22242;48.796;9.930;2023-03-11T06:21:45;-0.90;99.90
36206;DHT22;22242;48.796;9.930;2023-03-11T06:24:13;-0.90;99.90
36206;DHT22;22242;48.796;9.930;2023-03-11T06:26:40;-0.90;99.90
36206;DHT22;22242;48.796;9.930;2023-03-11T06:29:12;-0.80;99.90
36206;DHT22;22242;48.796;9.930;2023-03-11T06:31:41;-0.80;99.90
36206;DHT22;22242;48.796;9.930;2023-03-11T06:34:11;-0.80;99.90
36206;DHT22;22242;48.796;9.930;2023-03-11T06:36:38;-0.90;99.90
36206;DHT22;22242;48.796;9.930;2023-03-11T06:39:09;-0.80;99.90
36206;DHT22;22242;48.796;9.930;2023-03-11T06:41:37;-0.60;99.90
36206;DHT22;22242;48.796;9.930;2023-03-11T06:44:06;-0.40;99.90
36206;DHT22;22242;48.796;9.930;2023-03-11T06:46:35;-0.40;99.90
36206;DHT22;22242;48.796;9.930;2023-03-11T06:49:02;-0.40;99.90
36206;DHT22;22242;48.796;9.930;2023-03-11T06:51:30;-0.20;99.90
36206;DHT22;22242;48.796;9.930;2023-03-11T06:53:58;0.10;99.90
36206;DHT22;22242;48.796;9.930;2023-03-11T06:56:27;0.10;99.90
36206;DHT22;22242;48.796;9.930;2023-03-11T06:58:59;0.30;99.90
36206;DHT22;22242;48.796;9.930;2023-03-11T07:01:30;0.30;99.90
36206;DHT22;22242;48.796;9.930;2023-03-11T07:04:00;0.30;99.90
36206;DHT22;22242;48.796;9.930;2023-03-11T07:06:28;0.20;99.90
36206;DHT22;22242;48.796;9.930;2023-03-11T07:09:04;0.60;99.90
36206;DHT22;22242;48.796;9.930;2023-03-11T07:11:35;0.60;99.90
36206;DHT22;22242;48.796;9.930;2023-03-11T07:14:08;0.50;99.90
36206;DHT22;22242;48.796;9.930;2023-03-11T07:16:38;0.50;99.90
36206;DHT22;22242;48.796;9.930;2023-03-11T07:19:13;0.60;99.90
36206;DHT22;22242;48.796;9.930;2023-03-11T07:21:40;0.50;99.90
36206;DHT22;22242;48.796;9.930;2023-03-11T07:24:11;0.60;99.90
36206;DHT22;22242;48.796;9.930;2023-03-11T07:26:40;0.60;99.90
36206;DHT22;22242;48.796;9.930;2023-03-11T07:29:08;0.40;99.90
36206;DHT22;22242;48.796;9.930;2023-03-11T07:31:36;0.50;99.90
36206;DHT22;22242;48.796;9.930;2023-03-11T07:34:06;0.50;99.90
36206;DHT22;22242;48.796;9.930;2023-03-11T07:36:36;0.50;99.90
36206;DHT22;22242;48.796;9.930;2023-03-11T07:39:04;0.60;99.90
36206;DHT22;22242;48.796;9.930;2023-03-11T07:41:33;0.60;99.90
36206;DHT22;22242;48.796;9.930;2023-03-11T07:44:03;0.70;99.90
36206;DHT22;22242;48.796;9.930;2023-03-11T07:46:30;0.50;99.90
36206;DHT22;22242;48.796;9.930;2023-03-11T07:48:58;0.50;99.90
36206;DHT22;22242;48.796;9.930;2023-03-11T07:51:28;0.50;99.90
36206;DHT22;22242;48.796;9.930;2023-03-11T07:53:56;0.70;99.90
36206;DHT22;22242;48.796;9.930;2023-03-11T07:56:25;0.70;99.90
36206;DHT22;22242;48.796;9.930;2023-03-11T07:58:53;1.00;99.90
36206;DHT22;22242;48.796;9.930;2023-03-11T08:01:22;1.00;99.90
36206;DHT22;22242;48.796;9.930;2023-03-11T08:03:51;1.00;99.90
36206;DHT22;22242;48.796;9.930;2023-03-11T08:06:24;1.20;99.90
36206;DHT22;22242;48.796;9.930;2023-03-11T08:08:51;1.40;99.90
36206;DHT22;22242;48.796;9.930;2023-03-11T08:11:19;1.70;99.90
36206;DHT22;22242;48.796;9.930;2023-03-11T08:13:47;1.70;99.90
36206;DHT22;22242;48.796;9.930;2023-03-11T08:16:16;1.90;99.90
36206;DHT22;22242;48.796;9.930;2023-03-11T08:18:47;2.00;99.90
36206;DHT22;22242;48.796;9.930;2023-03-11T08:21:16;2.30;99.90
36206;DHT22;22242;48.796;9.930;2023-03-11T08:23:44;2.10;99.90
36206;DHT22;22242;48.796;9.930;2023-03-11T08:26:13;2.00;99.90
36206;DHT22;22242;48.796;9.930;2023-03-11T08:28:40;2.30;99.90
36206;DHT22;22242;48.796;9.930;2023-03-11T08:31:12;2.20;99.90
36206;DHT22;22242;48.796;9.930;2023-03-11T08:33:40;2.10;99.90
36206;DHT22;22242;48.796;9.930;2023-03-11T08:36:08;2.00;99.90
36206;DHT22;22242;48.796;9.930;2023-03-11T08:38:35;1.80;99.90
36206;DHT22;22242;48.796;9.930;2023-03-11T08:41:03;1.60;99.90
36206;DHT22;22242;48.796;9.930;2023-03-11T08:43:30;2.00;99.90
36206;DHT22;22242;48.796;9.930;2023-03-11T08:45:59;2.00;99.90
36206;DHT22;22242;48.796;9.930;2023-03-11T08:48:26;1.90;99.90
36206;DHT22;22242;48.796;9.930;2023-03-11T08:50:53;1.90;99.90
36206;DHT22;22242;48.796;9.930;2023-03-11T08:53:22;2.10;99.90
36206;DHT22;22242;48.796;9.930;2023-03-11T08:55:50;2.10;99.90
36206;DHT22;22242;48.796;9.930;2023-03-11T08:58:18;2.30;99.90
36206;DHT22;22242;48.796;9.930;2023-03-11T09:00:45;2.70;99.90
36206;DHT22;22242;48.796;9.930;2023-03-11T09:03:12;3.20;99.90
36206;DHT22;22242;48.796;9.930;2023-03-11T09:05:39;3.30;99.90
36206;DHT22;22242;48.796;9.930;2023-03-11T09:08:06;4.20;99.90
36206;DHT22;22242;48.796;9.930;2023-03-11T09:10:35;5.30;99.90
36206;DHT22;22242;48.796;9.930;2023-03-11T09:13:02;5.00;99.90
36206;DHT22;22242;48.796;9.930;2023-03-11T09:15:29;4.30;99.90
36206;DHT22;22242;48.796;9.930;2023-03-11T09:17:56;3.80;99.90
36206;DHT22;22242;48.796;9.930;2023-03-11T09:20:24;3.20;99.90
36206;DHT22;22242;48.796;9.930;2023-03-11T09:22:51;3.50;99.90
36206;DHT22;22242;48.796;9.930;2023-03-11T09:25:18;3.40;99.90
36206;DHT22;22242;48.796;9.930;2023-03-11T09:27:46;2.70;99.90
36206;DHT22;22242;48.796;9.930;2023-03-11T09:30:13;2.40;99.90
36206;DHT22;22242;48.796;9.930;2023-03-11T09:32:40;2.30;99.90
36206;DHT22;22242;48.796;9.930;2023-03-11T09:35:08;2.40;99.90
36206;DHT22;22242;48.796;9.930;2023-03-11T09:37:35;2.60;99.90
36206;DHT22;22242;48.796;9.930;2023-03-11T09:40:03;2.70;99.90
36206;DHT22;22242;48.796;9.930;2023-03-11T09:42:36;2.40;99.90
36206;DHT22;22242;48.796;9.930;2023-03-11T09:45:14;2.70;99.90
36206;DHT22;22242;48.796;9.930;2023-03-11T09:47:54;2.90;99.90
36206;DHT22;22242;48.796;9.930;2023-03-11T09:50:30;2.70;99.90
36206;DHT22;22242;48.796;9.930;2023-03-11T09:53:16;2.90;99.90
36206;DHT22;22242;48.796;9.930;2023-03-11T09:55:48;2.90;99.90
36206;DHT22;22242;48.796;9.930;2023-03-11T09:58:20;2.70;99.90
36206;DHT22;22242;48.796;9.930;2023-03-11T10:00:50;2.90;99.90
36206;DHT22;22242;48.796;9.930;2023-03-11T10:03:26;2.60;99.90
36206;DHT22;22242;48.796;9.930;2023-03-11T10:06:00;2.60;99.90
36206;DHT22;22242;48.796;9.930;2023-03-11T10:08:33;2.60;99.90
36206;DHT22;22242;48.796;9.930;2023-03-11T10:11:15;2.90;99.90
36206;DHT22;22242;48.796;9.930;2023-03-11T10:13:45;3.20;99.90
36206;DHT22;22242;48.796;9.930;2023-03-11T10:16:23;4.50;99.90
36206;DHT22;22242;48.796;9.930;2023-03-11T10:18:57;6.80;99.90
36206;DHT22;22242;48.796;9.930;2023-03-11T10:21:36;6.40;99.90
36206;DHT22;22242;48.796;9.930;2023-03-11T10:24:25;6.20;99.90
36206;DHT22;22242;48.796;9.930;2023-03-11T10:27:02;5.30;99.90
36206;DHT22;22242;48.796;9.930;2023-03-11T10:29:42;4.90;99.90
36206;DHT22;22242;48.796;9.930;2023-03-11T10:32:16;4.00;99.90
36206;DHT22;22242;48.796;9.930;2023-03-11T10:34:48;3.60;99.90
36206;DHT22;22242;48.796;9.930;2023-03-11T10:37:22;3.40;99.90
36206;DHT22;22242;48.796;9.930;2023-03-11T10:39:50;3.20;99.90
36206;DHT22;22242;48.796;9.930;2023-03-11T10:42:20;2.90;99.90
36206;DHT22;22242;48.796;9.930;2023-03-11T10:44:49;3.10;99.90
36206;DHT22;22242;48.796;9.930;2023-03-11T10:47:18;3.20;99.90
36206;DHT22;22242;48.796;9.930;2023-03-11T10:49:46;3.00;99.90
36206;DHT22;22242;48.796;9.930;2023-03-11T10:52:13;3.20;99.90
36206;DHT22;22242;48.796;9.930;2023-03-11T10:54:42;3.30;99.90
36206;DHT22;22242;48.796;9.930;2023-03-11T10:57:23;3.10;99.90
36206;DHT22;22242;48.796;9.930;2023-03-11T10:59:51;3.10;99.90
36206;DHT22;22242;48.796;9.930;2023-03-11T11:02:24;3.40;99.90
36206;DHT22;22242;48.796;9.930;2023-03-11T11:05:21;3.40;99.90
36206;DHT22;22242;48.796;9.930;2023-03-11T11:07:51;3.40;99.90
36206;DHT22;22242;48.796;9.930;2023-03-11T11:10:28;3.50;99.90
36206;DHT22;22242;48.796;9.930;2023-03-11T11:12:56;3.90;99.90
36206;DHT22;22242;48.796;9.930;2023-03-11T11:15:26;4.00;99.90
36206;DHT22;22242;48.796;9.930;2023-03-11T11:17:56;4.00;99.90
36206;DHT22;22242;48.796;9.930;2023-03-11T11:20:24;4.10;99.90
36206;DHT22;22242;48.796;9.930;2023-03-11T11:22:54;4.20;99.90
36206;DHT22;22242;48.796;9.930;2023-03-11T11:25:29;4.10;99.90
36206;DHT22;22242;48.796;9.930;2023-03-11T11:27:59;4.40;99.90
36206;DHT22;22242;48.796;9.930;2023-03-11T11:30:27;4.30;99.90
36206;DHT22;22242;48.796;9.930;2023-03-11T11:32:56;4.30;99.90
36206;DHT22;22242;48.796;9.930;2023-03-11T11:35:48;4.30;99.90
36206;DHT22;22242;48.796;9.930;2023-03-11T11:38:17;4.90;99.90
36206;DHT22;22242;48.796;9.930;2023-03-11T11:40:44;5.10;99.90
36206;DHT22;22242;48.796;9.930;2023-03-11T11:43:13;5.40;99.90
36206;DHT22;22242;48.796;9.930;2023-03-11T11:45:44;6.20;99.90
36206;DHT22;22242;48.796;9.930;2023-03-11T11:48:18;6.90;99.90
36206;DHT22;22242;48.796;9.930;2023-03-11T11:50:50;7.30;99.90
36206;DHT22;22242;48.796;9.930;2023-03-11T11:53:27;7.40;99.90
36206;DHT22;22242;48.796;9.930;2023-03-11T11:55:56;7.60;99.90
36206;DHT22;22242;48.796;9.930;2023-03-11T11:58:23;7.40;98.50
36206;DHT22;22242;48.796;9.930;2023-03-11T12:01:01;7.80;95.40
36206;DHT22;22242;48.796;9.930;2023-03-11T12:03:59;7.70;96.90
36206;DHT22;22242;48.796;9.930;2023-03-11T12:06:33;8.00;98.70
36206;DHT22;22242;48.796;9.930;2023-03-11T12:09:05;8.50;94.20
36206;DHT22;22242;48.796;9.930;2023-03-11T12:11:40;7.40;96.20
36206;DHT22;22242;48.796;9.930;2023-03-11T12:14:15;6.40;97.50
36206;DHT22;22242;48.796;9.930;2023-03-11T12:16:50;6.30;99.60
36206;DHT22;22242;48.796;9.930;2023-03-11T12:19:32;6.10;98.40
36206;DHT22;22242;48.796;9.930;2023-03-11T12:25:24;5.10;99.90
36206;DHT22;22242;48.796;9.930;2023-03-11T12:27:57;5.20;99.90
36206;DHT22;22242;48.796;9.930;2023-03-11T12:30:29;5.10;99.90
36206;DHT22;22242;48.796;9.930;2023-03-11T12:33:00;5.10;99.90
36206;DHT22;22242;48.796;9.930;2023-03-11T12:35:31;5.00;99.90
36206;DHT22;22242;48.796;9.930;2023-03-11T12:38:04;5.50;99.90
36206;DHT22;22242;48.796;9.930;2023-03-11T12:40:49;5.60;99.90
36206;DHT22;22242;48.796;9.930;2023-03-11T12:43:27;5.60;99.90
36206;DHT22;22242;48.796;9.930;2023-03-11T12:46:14;5.90;96.90
36206;DHT22;22242;48.796;9.930;2023-03-11T12:48:43;6.30;96.80
36206;DHT22;22242;48.796;9.930;2023-03-11T12:51:38;6.60;98.70
36206;DHT22;22242;48.796;9.930;2023-03-11T12:54:28;6.50;96.50
36206;DHT22;22242;48.796;9.930;2023-03-11T12:56:58;5.80;97.30
36206;DHT22;22242;48.796;9.930;2023-03-11T12:59:45;6.30;97.90
36206;DHT22;22242;48.796;9.930;2023-03-11T13:02:25;6.80;96.00
36206;DHT22;22242;48.796;9.930;2023-03-11T13:04:58;5.90;96.10
36206;DHT22;22242;48.796;9.930;2023-03-11T13:07:45;5.40;95.60
36206;DHT22;22242;48.796;9.930;2023-03-11T13:10:19;5.40;94.50
36206;DHT22;22242;48.796;9.930;2023-03-11T13:12:48;5.10;95.90
36206;DHT22;22242;48.796;9.930;2023-03-11T13:15:34;4.90;98.20
36206;DHT22;22242;48.796;9.930;2023-03-11T13:18:13;5.00;96.50
36206;DHT22;22242;48.796;9.930;2023-03-11T13:20:49;4.70;99.90
36206;DHT22;22242;48.796;9.930;2023-03-11T13:23:34;5.30;99.00
36206;DHT22;22242;48.796;9.930;2023-03-11T13:26:18;5.70;98.10
36206;DHT22;22242;48.796;9.930;2023-03-11T13:32:30;6.00;97.30
36206;DHT22;22242;48.796;9.930;2023-03-11T13:35:09;6.10;97.60
36206;DHT22;22242;48.796;9.930;2023-03-11T13:37:47;6.00;95.40
36206;DHT22;22242;48.796;9.930;2023-03-11T13:40:27;5.70;95.40
36206;DHT22;22242;48.796;9.930;2023-03-11T13:43:00;5.20;98.10
36206;DHT22;22242;48.796;9.930;2023-03-11T13:45:29;5.60;96.50
36206;DHT22;22242;48.796;9.930;2023-03-11T13:48:02;5.80;97.20
36206;DHT22;22242;48.796;9.930;2023-03-11T13:50:33;6.20;95.50
36206;DHT22;22242;48.796;9.930;2023-03-11T13:53:05;6.20;95.30
36206;DHT22;22242;48.796;9.930;2023-03-11T13:55:37;6.20;95.00
36206;DHT22;22242;48.796;9.930;2023-03-11T13:58:14;5.60;95.70
36206;DHT22;22242;48.796;9.930;2023-03-11T14:00:46;5.70;96.00
36206;DHT22;22242;48.796;9.930;2023-03-11T14:03:14;5.60;95.20
36206;DHT22;22242;48.796;9.930;2023-03-11T14:05:46;5.80;95.90
36206;DHT22;22242;48.796;9.930;2023-03-11T14:08:19;5.40;96.50
36206;DHT22;22242;48.796;9.930;2023-03-11T14:10:55;5.10;97.40
36206;DHT22;22242;48.796;9.930;2023-03-11T14:13:24;5.30;96.10
36206;DHT22;22242;48.796;9.930;2023-03-11T14:15:56;4.90;96.20
36206;DHT22;22242;48.796;9.930;2023-03-11T14:18:30;4.70;95.90
36206;DHT22;22242;48.796;9.930;2023-03-11T14:20:58;4.80;96.10
36206;DHT22;22242;48.796;9.930;2023-03-11T14:23:28;4.90;97.00
36206;DHT22;22242;48.796;9.930;2023-03-11T14:26:00;4.90;96.70
36206;DHT22;22242;48.796;9.930;2023-03-11T14:28:32;4.70;95.40
36206;DHT22;22242;48.796;9.930;2023-03-11T14:31:01;4.50;95.30
36206;DHT22;22242;48.796;9.930;2023-03-11T14:33:29;4.60;96.80
36206;DHT22;22242;48.796;9.930;2023-03-11T14:35:57;4.70;97.20
36206;DHT22;22242;48.796;9.930;2023-03-11T14:38:27;4.60;96.30
36206;DHT22;22242;48.796;9.930;2023-03-11T14:40:56;4.40;95.20
36206;DHT22;22242;48.796;9.930;2023-03-11T14:43:26;4.40;95.80
36206;DHT22;22242;48.796;9.930;2023-03-11T14:45:54;4.40;96.50
36206;DHT22;22242;48.796;9.930;2023-03-11T14:48:26;4.40;97.80
36206;DHT22;22242;48.796;9.930;2023-03-11T14:50:56;4.70;96.90
36206;DHT22;22242;48.796;9.930;2023-03-11T14:53:25;4.90;96.10
36206;DHT22;22242;48.796;9.930;2023-03-11T14:55:55;5.20;96.80
36206;DHT22;22242;48.796;9.930;2023-03-11T14:58:29;5.30;95.60
36206;DHT22;22242;48.796;9.930;2023-03-11T15:01:03;5.70;93.90
36206;DHT22;22242;48.796;9.930;2023-03-11T15:03:33;5.60;92.50
36206;DHT22;22242;48.796;9.930;2023-03-11T15:06:04;5.50;93.70
36206;DHT22;22242;48.796;9.930;2023-03-11T15:08:35;5.30;94.70
36206;DHT22;22242;48.796;9.930;2023-03-11T15:11:07;5.30;96.00
36206;DHT22;22242;48.796;9.930;2023-03-11T15:13:46;5.30;94.70
36206;DHT22;22242;48.796;9.930;2023-03-11T15:16:29;5.10;94.90
36206;DHT22;22242;48.796;9.930;2023-03-11T15:18:58;5.00;94.50
36206;DHT22;22242;48.796;9.930;2023-03-11T15:21:26;5.00;95.40
36206;DHT22;22242;48.796;9.930;2023-03-11T15:23:59;5.00;95.50
36206;DHT22;22242;48.796;9.930;2023-03-11T15:26:28;5.00;94.80
36206;DHT22;22242;48.796;9.930;2023-03-11T15:28:59;5.10;95.20
36206;DHT22;22242;48.796;9.930;2023-03-11T15:31:32;5.10;95.90
36206;DHT22;22242;48.796;9.930;2023-03-11T15:34:11;5.00;96.10
36206;DHT22;22242;48.796;9.930;2023-03-11T15:39:42;4.70;96.80
36206;DHT22;22242;48.796;9.930;2023-03-11T15:42:20;4.70;96.70
36206;DHT22;22242;48.796;9.930;2023-03-11T15:45:01;4.60;97.50
36206;DHT22;22242;48.796;9.930;2023-03-11T15:47:29;4.80;97.20
36206;DHT22;22242;48.796;9.930;2023-03-11T15:49:56;4.70;97.20
36206;DHT22;22242;48.796;9.930;2023-03-11T15:52:24;4.60;98.90
36206;DHT22;22242;48.796;9.930;2023-03-11T15:54:51;4.70;97.50
36206;DHT22;22242;48.796;9.930;2023-03-11T15:57:22;4.70;97.80
36206;DHT22;22242;48.796;9.930;2023-03-11T15:59:52;4.80;97.90
36206;DHT22;22242;48.796;9.930;2023-03-11T16:02:22;4.90;97.90
36206;DHT22;22242;48.796;9.930;2023-03-11T16:04:50;4.90;96.20
36206;DHT22;22242;48.796;9.930;2023-03-11T16:07:17;4.70;97.30
36206;DHT22;22242;48.796;9.930;2023-03-11T16:09:44;4.60;97.70
36206;DHT22;22242;48.796;9.930;2023-03-11T16:12:17;4.50;97.40
36206;DHT22;22242;48.796;9.930;2023-03-11T16:14:45;4.60;97.40